sensor_id;sensor_type;location;lat;lon;timestamp;temperature;humidity
2477;DHT22;1249;51.270;6.756;2022-12-18T00:00:44;2.40;99.90
2477;DHT22;1249;51.270;6.756;2022-12-18T00:03:12;2.40;99.90
2477;DHT22;1249;51.270;6.756;2022-12-18T00:05:46;2.40;99.90
2477;DHT22;1249;51.270;6.756;2022-12-18T00:08:13;2.50;99.90
2477;DHT22;1249;51.270;6.756;2022-12-18T00:10:39;2.40;99.90
2477;DHT22;1249;51.270;6.756;2022-12-18T00:13:06;2.30;99.90
2477;DHT22;1249;51.270;6.756;2022-12-18T00:15:33;2.30;99.90
2477;DHT22;1249;51.270;6.756;2022-12-18T00:18:01;2.30;99.90
2477;DHT22;1249;51.270;6.756;2022-12-18T00:20:28;2.30;99.90
2477;DHT22;1249;51.270;6.756;2022-12-18T00:22:55;2.30;99.90
2477;DHT22;1249;51.270;6.756;2022-12-18T00:25:22;2.40;99.90
2477;DHT22;1249;51.270;6.756;2022-12-18T00:27:49;2.30;99.90
2477;DHT22;1249;51.270;6.756;2022-12-18T00:30:15;2.30;99.90
2477;DHT22;1249;51.270;6.756;2022-12-18T00:32:42;2.40;99.90
2477;DHT22;1249;51.270;6.756;2022-12-18T00:35:10;2.30;99.90
2477;DHT22;1249;51.270;6.756;2022-12-18T00:37:37;2.30;99.90
2477;DHT22;1249;51.270;6.756;2022-12-18T00:40:05;2.30;99.90
2477;DHT22;1249;51.270;6.756;2022-12-18T00:42:32;2.30;99.90
2477;DHT22;1249;51.270;6.756;2022-12-18T00:45:16;2.30;99.90
2477;DHT22;1249;51.270;6.756;2022-12-18T00:47:43;2.40;99.90
2477;DHT22;1249;51.270;6.756;2022-12-18T00:50:11;2.30;99.90
2477;DHT22;1249;51.270;6.756;2022-12-18T00:52:38;2.30;99.90
2477;DHT22;1249;51.270;6.756;2022-12-18T00:55:05;2.30;99.90
2477;DHT22;1249;51.270;6.756;2022-12-18T00:57:32;2.30;99.90
2477;DHT22;1249;51.270;6.756;2022-12-18T00:59:59;2.30;99.90
2477;DHT22;1249;51.270;6.756;2022-12-18T01:02:26;2.30;99.90
2477;DHT22;1249;51.270;6.756;2022-12-18T01:04:53;2.30;99.90
2477;DHT22;1249;51.270;6.756;2022-12-18T01:07:21;2.20;99.90
2477;DHT22;1249;51.270;6.756;2022-12-18T01:09:48;2.40;99.90
2477;DHT22;1249;51.270;6.756;2022-12-18T01:12:15;2.30;99.90
2477;DHT22;1249;51.270;6.756;2022-12-18T01:14:42;2.30;99.90
2477;DHT22;1249;51.270;6.756;2022-12-18T01:17:08;2.30;99.90
2477;DHT22;1249;51.270;6.756;2022-12-18T01:19:35;2.30;99.90
2477;DHT22;1249;51.270;6.756;2022-12-18T01:22:02;2.30;99.90
2477;DHT22;1249;51.270;6.756;2022-12-18T01:24:30;2.30;99.90
2477;DHT22;1249;51.270;6.756;2022-12-18T01:26:57;2.30;99.90
2477;DHT22;1249;51.270;6.756;2022-12-18T01:29:24;2.30;99.90
2477;DHT22;1249;51.270;6.756;2022-12-18T01:31:54;2.40;99.90
2477;DHT22;1249;51.270;6.756;2022-12-18T01:34:21;2.30;99.90
2477;DHT22;1249;51.270;6.756;2022-12-18T01:36:48;2.30;99.90
2477;DHT22;1249;51.270;6.756;2022-12-18T01:39:18;2.20;99.90
2477;DHT22;1249;51.270;6.756;2022-12-18T01:41:46;2.20;99.90
2477;DHT22;1249;51.270;6.756;2022-12-18T01:44:56;2.20;99.90
2477;DHT22;1249;51.270;6.756;2022-12-18T01:47:28;2.30;99.90
2477;DHT22;1249;51.270;6.756;2022-12-18T01:49:59;2.30;99.90
2477;DHT22;1249;51.270;6.756;2022-12-18T01:52:29;2.30;99.90
2477;DHT22;1249;51.270;6.756;2022-12-18T01:54:59;2.20;99.90
2477;DHT22;1249;51.270;6.756;2022-12-18T01:57:29;2.30;99.90
2477;DHT22;1249;51.270;6.756;2022-12-18T01:59:59;2.40;99.90
2477;DHT22;1249;51.270;6.756;2022-12-18T02:02:27;2.30;99.90
2477;DHT22;1249;51.270;6.756;2022-12-18T02:04:55;2.20;99.90
2477;DHT22;1249;51.270;6.756;2022-12-18T02:07:27;2.20;99.90
2477;DHT22;1249;51.270;6.756;2022-12-18T02:10:00;2.20;99.90
2477;DHT22;1249;51.270;6.756;2022-12-18T02:12:36;2.30;99.90
2477;DHT22;1249;51.270;6.756;2022-12-18T02:15:10;2.30;99.90
2477;DHT22;1249;51.270;6.756;2022-12-18T02:17:43;2.20;99.90
2477;DHT22;1249;51.270;6.756;2022-12-18T02:20:18;2.20;99.90
2477;DHT22;1249;51.270;6.756;2022-12-18T02:23:00;2.20;99.90
2477;DHT22;1249;51.270;6.756;2022-12-18T02:25:42;2.20;99.90
2477;DHT22;1249;51.270;6.756;2022-12-18T02:28:16;2.20;99.90
2477;DHT22;1249;51.270;6.756;2022-12-18T02:30:48;2.20;99.90
2477;DHT22;1249;51.270;6.756;2022-12-18T02:33:16;2.30;99.90
2477;DHT22;1249;51.270;6.756;2022-12-18T02:35:44;2.20;99.90
2477;DHT22;1249;51.270;6.756;2022-12-18T02:38:12;2.30;99.90
2477;DHT22;1249;51.270;6.756;2022-12-18T02:40:40;2.30;99.90
2477;DHT22;1249;51.270;6.756;2022-12-18T02:43:09;2.20;99.90
2477;DHT22;1249;51.270;6.756;2022-12-18T02:45:46;2.30;99.90
2477;DHT22;1249;51.270;6.756;2022-12-18T02:48:14;2.20;99.90
2477;DHT22;1249;51.270;6.756;2022-12-18T02:50:47;2.20;99.90
2477;DHT22;1249;51.270;6.756;2022-12-18T02:53:21;2.10;99.90
2477;DHT22;1249;51.270;6.756;2022-12-18T02:55:58;2.10;99.90
2477;DHT22;1249;51.270;6.756;2022-12-18T02:58:32;2.20;99.90
2477;DHT22;1249;51.270;6.756;2022-12-18T03:01:08;2.20;99.90
2477;DHT22;1249;51.270;6.756;2022-12-18T03:03:39;2.30;99.90
2477;DHT22;1249;51.270;6.756;2022-12-18T03:06:10;2.20;99.90
2477;DHT22;1249;51.270;6.756;2022-12-18T03:08:41;2.10;99.90
2477;DHT22;1249;51.270;6.756;2022-12-18T03:11:11;2.20;99.90
2477;DHT22;1249;51.270;6.756;2022-12-18T03:13:40;2.10;99.90
2477;DHT22;1249;51.270;6.756;2022-12-18T03:16:17;2.10;99.90
2477;DHT22;1249;51.270;6.756;2022-12-18T03:18:47;2.10;99.90
2477;DHT22;1249;51.270;6.756;2022-12-18T03:21:18;2.10;99.90
2477;DHT22;1249;51.270;6.756;2022-12-18T03:23:48;2.20;99.90
2477;DHT22;1249;51.270;6.756;2022-12-18T03:26:18;2.10;99.90
2477;DHT22;1249;51.270;6.756;2022-12-18T03:28:51;2.20;99.90
2477;DHT22;1249;51.270;6.756;2022-12-18T03:31:20;2.10;99.90
2477;DHT22;1249;51.270;6.756;2022-12-18T03:33:52;2.10;99.90
2477;DHT22;1249;51.270;6.756;2022-12-18T03:36:19;2.10;99.90
2477;DHT22;1249;51.270;6.756;2022-12-18T03:38:47;2.10;99.90
2477;DHT22;1249;51.270;6.756;2022-12-18T03:41:18;2.10;99.90
2477;DHT22;1249;51.270;6.756;2022-12-18T03:43:50;2.10;99.90
2477;DHT22;1249;51.270;6.756;2022-12-18T03:46:27;2.10;99.90
2477;DHT22;1249;51.270;6.756;2022-12-18T03:49:01;2.10;99.90
2477;DHT22;1249;51.270;6.756;2022-12-18T03:51:39;2.10;99.90
2477;DHT22;1249;51.270;6.756;2022-12-18T03:54:10;2.00;99.90
2477;DHT22;1249;51.270;6.756;2022-12-18T03:56:41;2.10;99.90
2477;DHT22;1249;51.270;6.756;2022-12-18T03:59:12;2.10;99.90
2477;DHT22;1249;51.270;6.756;2022-12-18T04:01:45;2.10;99.90
2477;DHT22;1249;51.270;6.756;2022-12-18T04:04:13;2.20;99.90
2477;DHT22;1249;51.270;6.756;2022-12-18T04:06:42;2.10;99.90
2477;DHT22;1249;51.270;6.756;2022-12-18T04:09:10;2.10;99.90
2477;DHT22;1249;51.270;6.756;2022-12-18T04:11:37;2.10;99.90
2477;DHT22;1249;51.270;6.756;2022-12-18T04:14:03;2.10;99.90
2477;DHT22;1249;51.270;6.756;2022-12-18T04:16:30;2.10;99.90
2477;DHT22;1249;51.270;6.756;2022-12-18T04:18:58;2.10;99.90
2477;DHT22;1249;51.270;6.756;2022-12-18T04:21:25;2.00;99.90
2477;DHT22;1249;51.270;6.756;2022-12-18T04:23:52;2.00;99.90
2477;DHT22;1249;51.270;6.756;2022-12-18T04:26:19;2.10;99.90
2477;DHT22;1249;51.270;6.756;2022-12-18T04:28:46;2.00;99.90
2477;DHT22;1249;51.270;6.756;2022-12-18T04:31:13;2.00;99.90
2477;DHT22;1249;51.270;6.756;2022-12-18T04:33:40;2.10;99.90
2477;DHT22;1249;51.270;6.756;2022-12-18T04:36:08;2.00;99.90
2477;DHT22;1249;51.270;6.756;2022-12-18T04:38:39;2.10;99.90
2477;DHT22;1249;51.270;6.756;2022-12-18T04:41:06;2.00;99.90
2477;DHT22;1249;51.270;6.756;2022-12-18T04:43:32;2.10;99.90
2477;DHT22;1249;51.270;6.756;2022-12-18T04:46:03;2.00;99.90
2477;DHT22;1249;51.270;6.756;2022-12-18T04:48:31;2.00;99.90
2477;DHT22;1249;51.270;6.756;2022-12-18T04:50:58;2.00;99.90
2477;DHT22;1249;51.270;6.756;2022-12-18T04:53:26;2.00;99.90
2477;DHT22;1249;51.270;6.756;2022-12-18T04:56:02;2.00;99.90
2477;DHT22;1249;51.270;6.756;2022-12-18T04:58:30;2.00;99.90
2477;DHT22;1249;51.270;6.756;2022-12-18T05:00:56;2.00;99.90
2477;DHT22;1249;51.270;6.756;2022-12-18T05:03:23;2.00;99.90
2477;DHT22;1249;51.270;6.756;2022-12-18T05:05:50;2.10;99.90
2477;DHT22;1249;51.270;6.756;2022-12-18T05:08:17;1.90;99.90
2477;DHT22;1249;51.270;6.756;2022-12-18T05:10:45;2.00;99.90
2477;DHT22;1249;51.270;6.756;2022-12-18T05:13:12;1.90;99.90
2477;DHT22;1249;51.270;6.756;2022-12-18T05:15:39;1.90;99.90
2477;DHT22;1249;51.270;6.756;2022-12-18T05:18:07;2.00;99.90
2477;DHT22;1249;51.270;6.756;2022-12-18T05:20:34;1.90;99.90
2477;DHT22;1249;51.270;6.756;2022-12-18T05:23:01;1.90;99.90
2477;DHT22;1249;51.270;6.756;2022-12-18T05:25:28;2.00;99.90
2477;DHT22;1249;51.270;6.756;2022-12-18T05:27:56;2.00;99.90
2477;DHT22;1249;51.270;6.756;2022-12-18T05:30:23;2.00;99.90
2477;DHT22;1249;51.270;6.756;2022-12-18T05:32:50;1.90;99.90
2477;DHT22;1249;51.270;6.756;2022-12-18T05:35:17;1.90;99.90
2477;DHT22;1249;51.270;6.756;2022-12-18T05:37:44;1.90;99.90
2477;DHT22;1249;51.270;6.756;2022-12-18T05:40:11;2.00;99.90
2477;DHT22;1249;51.270;6.756;2022-12-18T05:42:38;2.00;99.90
2477;DHT22;1249;51.270;6.756;2022-12-18T05:45:08;1.90;99.90
2477;DHT22;1249;51.270;6.756;2022-12-18T05:47:34;2.00;99.90
2477;DHT22;1249;51.270;6.756;2022-12-18T05:50:01;2.00;99.90
2477;DHT22;1249;51.270;6.756;2022-12-18T05:52:28;1.90;99.90
2477;DHT22;1249;51.270;6.756;2022-12-18T05:54:56;1.90;99.90
2477;DHT22;1249;51.270;6.756;2022-12-18T05:57:24;1.90;99.90
2477;DHT22;1249;51.270;6.756;2022-12-18T05:59:51;1.90;99.90
2477;DHT22;1249;51.270;6.756;2022-12-18T06:02:19;1.90;99.90
2477;DHT22;1249;51.270;6.756;2022-12-18T06:04:46;1.90;99.90
2477;DHT22;1249;51.270;6.756;2022-12-18T06:07:13;1.90;99.90
2477;DHT22;1249;51.270;6.756;2022-12-18T06:09:40;1.90;99.90
2477;DHT22;1249;51.270;6.756;2022-12-18T06:12:07;1.90;99.90
2477;DHT22;1249;51.270;6.756;2022-12-18T06:14:34;1.90;99.90
2477;DHT22;1249;51.270;6.756;2022-12-18T06:17:00;1.90;99.90
2477;DHT22;1249;51.270;6.756;2022-12-18T06:19:29;1.90;99.90
2477;DHT22;1249;51.270;6.756;2022-12-18T06:21:55;2.00;99.90
2477;DHT22;1249;51.270;6.756;2022-12-18T06:24:24;1.90;99.90
2477;DHT22;1249;51.270;6.756;2022-12-18T06:26:57;2.00;99.90
2477;DHT22;1249;51.270;6.756;2022-12-18T06:29:24;1.90;99.90
2477;DHT22;1249;51.270;6.756;2022-12-18T06:31:51;2.00;99.90
2477;DHT22;1249;51.270;6.756;2022-12-18T06:34:18;2.00;99.90
2477;DHT22;1249;51.270;6.756;2022-12-18T06:36:46;2.00;99.90
2477;DHT22;1249;51.270;6.756;2022-12-18T06:39:13;2.00;99.90
2477;DHT22;1249;51.270;6.756;2022-12-18T06:41:40;1.90;99.90
2477;DHT22;1249;51.270;6.756;2022-12-18T06:44:06;1.90;99.90
2477;DHT22;1249;51.270;6.756;2022-12-18T06:46:33;2.90;99.90
2477;DHT22;1249;51.270;6.756;2022-12-18T06:49:00;3.90;99.90
2477;DHT22;1249;51.270;6.756;2022-12-18T06:51:27;4.80;99.90
2477;DHT22;1249;51.270;6.756;2022-12-18T06:53:55;5.40;99.90
2477;DHT22;1249;51.270;6.756;2022-12-18T06:56:22;5.70;99.90
2477;DHT22;1249;51.270;6.756;2022-12-18T06:58:49;6.00;99.90
2477;DHT22;1249;51.270;6.756;2022-12-18T07:01:15;5.60;99.90
2477;DHT22;1249;51.270;6.756;2022-12-18T07:03:43;5.00;99.90
2477;DHT22;1249;51.270;6.756;2022-12-18T07:06:14;4.60;99.90
2477;DHT22;1249;51.270;6.756;2022-12-18T07:08:41;4.20;99.90
2477;DHT22;1249;51.270;6.756;2022-12-18T07:11:10;3.90;99.90
2477;DHT22;1249;51.270;6.756;2022-12-18T07:13:37;3.70;99.90
2477;DHT22;1249;51.270;6.756;2022-12-18T07:16:05;3.40;99.90
2477;DHT22;1249;51.270;6.756;2022-12-18T07:18:32;3.20;99.90
2477;DHT22;1249;51.270;6.756;2022-12-18T07:21:03;3.00;99.90
2477;DHT22;1249;51.270;6.756;2022-12-18T07:23:32;2.90;99.90
2477;DHT22;1249;51.270;6.756;2022-12-18T07:26:01;2.80;99.90
2477;DHT22;1249;51.270;6.756;2022-12-18T07:28:30;2.70;99.90
2477;DHT22;1249;51.270;6.756;2022-12-18T07:30:58;2.50;99.90
2477;DHT22;1249;51.270;6.756;2022-12-18T07:33:25;2.60;99.90
2477;DHT22;1249;51.270;6.756;2022-12-18T07:35:52;2.50;99.90
2477;DHT22;1249;51.270;6.756;2022-12-18T07:38:19;2.40;99.90
2477;DHT22;1249;51.270;6.756;2022-12-18T07:40:46;2.50;99.90
2477;DHT22;1249;51.270;6.756;2022-12-18T07:43:13;2.50;99.90
2477;DHT22;1249;51.270;6.756;2022-12-18T07:45:42;2.30;99.90
2477;DHT22;1249;51.270;6.756;2022-12-18T07:48:09;2.40;99.90
2477;DHT22;1249;51.270;6.756;2022-12-18T07:50:36;2.40;99.90
2477;DHT22;1249;51.270;6.756;2022-12-18T07:53:03;2.50;99.90
2477;DHT22;1249;51.270;6.756;2022-12-18T07:55:30;2.40;99.90
2477;DHT22;1249;51.270;6.756;2022-12-18T07:58:00;2.40;99.90
2477;DHT22;1249;51.270;6.756;2022-12-18T08:00:27;2.50;99.90
2477;DHT22;1249;51.270;6.756;2022-12-18T08:02:55;2.40;99.90
2477;DHT22;1249;51.270;6.756;2022-12-18T08:05:23;2.40;99.90
2477;DHT22;1249;51.270;6.756;2022-12-18T08:07:49;2.40;99.90
2477;DHT22;1249;51.270;6.756;2022-12-18T08:10:16;2.30;99.90
2477;DHT22;1249;51.270;6.756;2022-12-18T08:12:43;2.40;99.90
2477;DHT22;1249;51.270;6.756;2022-12-18T08:15:10;2.40;99.90
2477;DHT22;1249;51.270;6.756;2022-12-18T08:17:37;2.30;99.90
2477;DHT22;1249;51.270;6.756;2022-12-18T08:20:07;2.40;99.90
2477;DHT22;1249;51.270;6.756;2022-12-18T08:22:34;2.40;99.90
2477;DHT22;1249;51.270;6.756;2022-12-18T08:25:05;2.40;99.90
2477;DHT22;1249;51.270;6.756;2022-12-18T08:27:32;2.50;99.90
2477;DHT22;1249;51.270;6.756;2022-12-18T08:29:59;2.50;99.90
2477;DHT22;1249;51.270;6.756;2022-12-18T08:32:27;2.50;99.90
2477;DHT22;1249;51.270;6.756;2022-12-18T08:34:54;2.50;99.90
2477;DHT22;1249;51.270;6.756;2022-12-18T08:37:22;2.70;99.90
2477;DHT22;1249;51.270;6.756;2022-12-18T08:39:49;3.80;99.90
2477;DHT22;1249;51.270;6.756;2022-12-18T08:42:16;3.60;99.90
2477;DHT22;1249;51.270;6.756;2022-12-18T08:45:00;3.40;99.90
2477;DHT22;1249;51.270;6.756;2022-12-18T08:47:27;3.40;99.90
2477;DHT22;1249;51.270;6.756;2022-12-18T08:49:54;3.30;99.90
2477;DHT22;1249;51.270;6.756;2022-12-18T08:52:22;3.30;99.90
2477;DHT22;1249;51.270;6.756;2022-12-18T08:54:49;3.20;99.90
2477;DHT22;1249;51.270;6.756;2022-12-18T08:57:16;3.20;99.90
2477;DHT22;1249;51.270;6.756;2022-12-18T08:59:43;3.10;99.90
2477;DHT22;1249;51.270;6.756;2022-12-18T09:02:10;3.10;99.90
2477;DHT22;1249;51.270;6.756;2022-12-18T09:04:37;3.20;99.90
2477;DHT22;1249;51.270;6.756;2022-12-18T09:07:05;3.20;99.90
2477;DHT22;1249;51.270;6.756;2022-12-18T09:09:33;3.20;99.90
2477;DHT22;1249;51.270;6.756;2022-12-18T09:12:00;3.30;99.90
2477;DHT22;1249;51.270;6.756;2022-12-18T09:14:27;3.30;99.90
2477;DHT22;1249;51.270;6.756;2022-12-18T09:16:54;3.20;99.90
2477;DHT22;1249;51.270;6.756;2022-12-18T09:19:20;3.30;99.90
2477;DHT22;1249;51.270;6.756;2022-12-18T09:21:48;3.30;99.90
2477;DHT22;1249;51.270;6.756;2022-12-18T09:24:16;3.20;99.90
2477;DHT22;1249;51.270;6.756;2022-12-18T09:26:44;3.20;99.90
2477;DHT22;1249;51.270;6.756;2022-12-18T09:29:11;3.10;99.90
2477;DHT22;1249;51.270;6.756;2022-12-18T09:31:47;3.30;99.90
2477;DHT22;1249;51.270;6.756;2022-12-18T09:34:15;3.30;99.90
2477;DHT22;1249;51.270;6.756;2022-12-18T09:36:41;3.30;99.90
2477;DHT22;1249;51.270;6.756;2022-12-18T09:39:08;3.40;99.90
2477;DHT22;1249;51.270;6.756;2022-12-18T09:41:44;3.50;99.90
2477;DHT22;1249;51.270;6.756;2022-12-18T09:44:16;3.50;99.90
2477;DHT22;1249;51.270;6.756;2022-12-18T09:46:49;3.50;99.90
2477;DHT22;1249;51.270;6.756;2022-12-18T09:49:18;3.60;99.90
2477;DHT22;1249;51.270;6.756;2022-12-18T09:51:49;3.70;99.90
2477;DHT22;1249;51.270;6.756;2022-12-18T09:54:21;3.70;99.90
2477;DHT22;1249;51.270;6.756;2022-12-18T09:56:50;3.70;99.90
2477;DHT22;1249;51.270;6.756;2022-12-18T09:59:21;3.80;99.90
2477;DHT22;1249;51.270;6.756;2022-12-18T10:01:50;3.90;99.90
2477;DHT22;1249;51.270;6.756;2022-12-18T10:04:16;3.80;99.90
2477;DHT22;1249;51.270;6.756;2022-12-18T10:06:49;3.90;99.90
2477;DHT22;1249;51.270;6.756;2022-12-18T10:09:24;3.80;99.90
2477;DHT22;1249;51.270;6.756;2022-12-18T10:12:02;3.80;99.90
2477;DHT22;1249;51.270;6.756;2022-12-18T10:14:39;3.80;99.90
2477;DHT22;1249;51.270;6.756;2022-12-18T10:17:15;3.90;99.90
2477;DHT22;1249;51.270;6.756;2022-12-18T10:19:49;3.90;99.90
2477;DHT22;1249;51.270;6.756;2022-12-18T10:22:23;4.10;99.90
2477;DHT22;1249;51.270;6.756;2022-12-18T10:24:58;4.10;99.90
2477;DHT22;1249;51.270;6.756;2022-12-18T10:27:29;4.10;99.90
2477;DHT22;1249;51.270;6.756;2022-12-18T10:29:57;4.10;99.90
2477;DHT22;1249;51.270;6.756;2022-12-18T10:32:25;4.20;99.90
2477;DHT22;1249;51.270;6.756;2022-12-18T10:34:54;4.30;99.90
2477;DHT22;1249;51.270;6.756;2022-12-18T10:37:24;4.40;99.90
2477;DHT22;1249;51.270;6.756;2022-12-18T10:40:08;4.50;99.90
2477;DHT22;1249;51.270;6.756;2022-12-18T10:42:37;4.60;99.90
2477;DHT22;1249;51.270;6.756;2022-12-18T10:45:09;4.60;99.90
2477;DHT22;1249;51.270;6.756;2022-12-18T10:47:37;4.70;99.90
2477;DHT22;1249;51.270;6.756;2022-12-18T10:50:19;4.80;99.90
2477;DHT22;1249;51.270;6.756;2022-12-18T10:52:53;4.90;99.90
2477;DHT22;1249;51.270;6.756;2022-12-18T10:55:20;4.90;99.90
2477;DHT22;1249;51.270;6.756;2022-12-18T10:57:49;4.90;99.90
2477;DHT22;1249;51.270;6.756;2022-12-18T11:00:27;4.90;99.90
2477;DHT22;1249;51.270;6.756;2022-12-18T11:02:55;5.00;99.90
2477;DHT22;1249;51.270;6.756;2022-12-18T11:05:28;5.10;99.90
2477;DHT22;1249;51.270;6.756;2022-12-18T11:07:56;5.00;99.90
2477;DHT22;1249;51.270;6.756;2022-12-18T11:10:26;5.10;99.90
2477;DHT22;1249;51.270;6.756;2022-12-18T11:12:56;5.00;99.90
2477;DHT22;1249;51.270;6.756;2022-12-18T11:15:27;5.10;99.90
2477;DHT22;1249;51.270;6.756;2022-12-18T11:17:56;5.10;99.90
2477;DHT22;1249;51.270;6.756;2022-12-18T11:20:30;5.20;99.90
2477;DHT22;1249;51.270;6.756;2022-12-18T11:22:59;5.20;99.90
2477;DHT22;1249;51.270;6.756;2022-12-18T11:25:27;5.30;99.90
2477;DHT22;1249;51.270;6.756;2022-12-18T11:27:56;5.30;99.90
2477;DHT22;1249;51.270;6.756;2022-12-18T11:30:26;5.30;99.90
2477;DHT22;1249;51.270;6.756;2022-12-18T11:32:57;5.40;99.90
2477;DHT22;1249;51.270;6.756;2022-12-18T11:35:35;5.40;99.90
2477;DHT22;1249;51.270;6.756;2022-12-18T11:38:10;5.30;99.90
2477;DHT22;1249;51.270;6.756;2022-12-18T11:40:42;5.30;99.90
2477;DHT22;1249;51.270;6.756;2022-12-18T11:43:15;5.30;99.90
2477;DHT22;1249;51.270;6.756;2022-12-18T11:45:49;5.30;99.90
2477;DHT22;1249;51.270;6.756;2022-12-18T11:48:21;5.30;99.90
2477;DHT22;1249;51.270;6.756;2022-12-18T11:50:50;5.10;99.90
2477;DHT22;1249;51.270;6.756;2022-12-18T11:53:18;5.10;99.90
2477;DHT22;1249;51.270;6.756;2022-12-18T11:55:56;5.00;99.90
2477;DHT22;1249;51.270;6.756;2022-12-18T11:58:40;5.00;99.90
2477;DHT22;1249;51.270;6.756;2022-12-18T12:01:18;5.00;99.90
2477;DHT22;1249;51.270;6.756;2022-12-18T12:04:00;4.90;99.90
2477;DHT22;1249;51.270;6.756;2022-12-18T12:06:36;4.90;99.90
2477;DHT22;1249;51.270;6.756;2022-12-18T12:09:13;5.00;99.90
2477;DHT22;1249;51.270;6.756;2022-12-18T12:11:51;5.00;99.90
2477;DHT22;1249;51.270;6.756;2022-12-18T12:14:32;5.00;99.90
2477;DHT22;1249;51.270;6.756;2022-12-18T12:17:05;5.10;99.90
2477;DHT22;1249;51.270;6.756;2022-12-18T12:19:41;5.00;99.90
2477;DHT22;1249;51.270;6.756;2022-12-18T12:22:18;5.00;99.90
2477;DHT22;1249;51.270;6.756;2022-12-18T12:24:57;5.00;99.90
2477;DHT22;1249;51.270;6.756;2022-12-18T12:27:32;5.00;99.90
2477;DHT22;1249;51.270;6.756;2022-12-18T12:30:06;5.00;99.90
2477;DHT22;1249;51.270;6.756;2022-12-18T12:32:45;5.10;99.90
2477;DHT22;1249;51.270;6.756;2022-12-18T12:35:25;5.10;99.90
2477;DHT22;1249;51.270;6.756;2022-12-18T12:38:06;5.20;99.90
2477;DHT22;1249;51.270;6.756;2022-12-18T12:40:39;5.30;99.90
2477;DHT22;1249;51.270;6.756;2022-12-18T12:43:20;5.30;99.90
2477;DHT22;1249;51.270;6.756;2022-12-18T12:45:52;5.10;99.90
2477;DHT22;1249;51.270;6.756;2022-12-18T12:48:33;5.10;99.90
2477;DHT22;1249;51.270;6.756;2022-12-18T12:51:03;5.00;99.90
2477;DHT22;1249;51.270;6.756;2022-12-18T12:53:35;4.90;99.90
2477;DHT22;1249;51.270;6.756;2022-12-18T12:56:04;5.00;99.90
2477;DHT22;1249;51.270;6.756;2022-12-18T12:58:36;5.50;99.90
2477;DHT22;1249;51.270;6.756;2022-12-18T13:01:14;6.80;99.90
2477;DHT22;1249;51.270;6.756;2022-12-18T13:03:51;8.40;99.90
2477;DHT22;1249;51.270;6.756;2022-12-18T13:06:27;9.30;99.90
2477;DHT22;1249;51.270;6.756;2022-12-18T13:08:57;9.80;99.90
2477;DHT22;1249;51.270;6.756;2022-12-18T13:11:45;9.90;99.90
2477;DHT22;1249;51.270;6.756;2022-12-18T13:14:32;10.40;99.90
2477;DHT22;1249;51.270;6.756;2022-12-18T13:17:28;10.50;99.90
2477;DHT22;1249;51.270;6.756;2022-12-18T13:20:10;11.00;99.90
2477;DHT22;1249;51.270;6.756;2022-12-18T13:22:42;11.20;99.90
2477;DHT22;1249;51.270;6.756;2022-12-18T13:25:29;11.40;99.90
2477;DHT22;1249;51.270;6.756;2022-12-18T13:28:05;11.40;99.90
2477;DHT22;1249;51.270;6.756;2022-12-18T13:30:57;11.40;99.90
2477;DHT22;1249;51.270;6.756;2022-12-18T13:33:38;11.20;99.90
2477;DHT22;1249;51.270;6.756;2022-12-18T13:36:13;10.50;99.90
2477;DHT22;1249;51.270;6.756;2022-12-18T13:38:41;9.70;99.90
2477;DHT22;1249;51.270;6.756;2022-12-18T13:41:24;9.20;99.90
2477;DHT22;1249;51.270;6.756;2022-12-18T13:43:52;8.70;99.90
2477;DHT22;1249;51.270;6.756;2022-12-18T13:46:25;8.10;99.90
2477;DHT22;1249;51.270;6.756;2022-12-18T13:49:00;7.80;99.90
2477;DHT22;1249;51.270;6.756;2022-12-18T13:51:31;7.50;99.90
2477;DHT22;1249;51.270;6.756;2022-12-18T13:54:00;7.30;99.90
2477;DHT22;1249;51.270;6.756;2022-12-18T13:56:29;7.00;99.90
2477;DHT22;1249;51.270;6.756;2022-12-18T13:59:14;7.00;99.90
2477;DHT22;1249;51.270;6.756;2022-12-18T14:01:43;6.70;99.90
2477;DHT22;1249;51.270;6.756;2022-12-18T14:04:16;6.60;99.90
2477;DHT22;1249;51.270;6.756;2022-12-18T14:06:45;6.50;99.90
2477;DHT22;1249;51.270;6.756;2022-12-18T14:09:14;6.30;99.90
2477;DHT22;1249;51.270;6.756;2022-12-18T14:11:46;6.20;99.90
2477;DHT22;1249;51.270;6.756;2022-12-18T14:14:14;6.10;99.90
2477;DHT22;1249;51.270;6.756;2022-12-18T14:16:41;6.20;99.90
2477;DHT22;1249;51.270;6.756;2022-12-18T14:19:13;6.10;99.90
2477;DHT22;1249;51.270;6.756;2022-12-18T14:21:40;6.10;99.90
2477;DHT22;1249;51.270;6.756;2022-12-18T14:24:14;5.90;99.90
2477;DHT22;1249;51.270;6.756;2022-12-18T14:26:42;5.90;99.90
2477;DHT22;1249;51.270;6.756;2022-12-18T14:29:20;5.80;99.90
2477;DHT22;1249;51.270;6.756;2022-12-18T14:32:10;5.80;99.90
2477;DHT22;1249;51.270;6.756;2022-12-18T14:34:39;5.70;99.90
2477;DHT22;1249;51.270;6.756;2022-12-18T14:37:07;5.60;99.90
2477;DHT22;1249;51.270;6.756;2022-12-18T14:39:35;5.50;99.90
2477;DHT22;1249;51.270;6.756;2022-12-18T14:42:02;5.50;99.90
2477;DHT22;1249;51.270;6.756;2022-12-18T14:44:29;5.50;99.90
2477;DHT22;1249;51.270;6.756;2022-12-18T14:46:56;5.50;99.90
2477;DHT22;1249;51.270;6.756;2022-12-18T14:49:26;5.40;99.90
2477;DHT22;1249;51.270;6.756;2022-12-18T14:51:56;5.40;99.90
2477;DHT22;1249;51.270;6.756;2022-12-18T14:54:25;5.30;99.90
2477;DHT22;1249;51.270;6.756;2022-12-18T14:56:57;5.30;99.90
2477;DHT22;1249;51.270;6.756;2022-12-18T14:59:26;5.30;99.90
2477;DHT22;1249;51.270;6.756;2022-12-18T15:01:59;5.30;99.90
2477;DHT22;1249;51.270;6.756;2022-12-18T15:04:27;5.20;99.90
2477;DHT22;1249;51.270;6.756;2022-12-18T15:07:09;5.20;99.90
2477;DHT22;1249;51.270;6.756;2022-12-18T15:09:38;5.10;99.90
2477;DHT22;1249;51.270;6.756;2022-12-18T15:12:22;5.10;99.90
2477;DHT22;1249;51.270;6.756;2022-12-18T15:14:51;5.10;99.90
2477;DHT22;1249;51.270;6.756;2022-12-18T15:17:19;5.00;99.90
2477;DHT22;1249;51.270;6.756;2022-12-18T15:19:48;5.10;99.90
2477;DHT22;1249;51.270;6.756;2022-12-18T15:22:21;5.00;99.90
2477;DHT22;1249;51.270;6.756;2022-12-18T15:24:48;5.00;99.90
2477;DHT22;1249;51.270;6.756;2022-12-18T15:27:23;4.90;99.90
2477;DHT22;1249;51.270;6.756;2022-12-18T15:30:19;4.90;99.90
2477;DHT22;1249;51.270;6.756;2022-12-18T15:32:46;4.90;99.90
2477;DHT22;1249;51.270;6.756;2022-12-18T15:35:16;4.90;99.90
2477;DHT22;1249;51.270;6.756;2022-12-18T15:37:45;4.90;99.90
2477;DHT22;1249;51.270;6.756;2022-12-18T15:40:13;4.80;99.90
2477;DHT22;1249;51.270;6.756;2022-12-18T15:42:40;4.80;99.90
2477;DHT22;1249;51.270;6.756;2022-12-18T15:45:24;4.80;99.90
2477;DHT22;1249;51.270;6.756;2022-12-18T15:47:51;4.70;99.90
2477;DHT22;1249;51.270;6.756;2022-12-18T15:50:18;4.70;99.90
2477;DHT22;1249;51.270;6.756;2022-12-18T15:52:48;4.80;99.90
2477;DHT22;1249;51.270;6.756;2022-12-18T15:55:17;4.60;99.90
2477;DHT22;1249;51.270;6.756;2022-12-18T15:58:03;4.70;99.90
2477;DHT22;1249;51.270;6.756;2022-12-18T16:00:30;4.80;99.90
2477;DHT22;1249;51.270;6.756;2022-12-18T16:02:56;4.90;99.90
2477;DHT22;1249;51.270;6.756;2022-12-18T16:05:24;4.90;99.90
2477;DHT22;1249;51.270;6.756;2022-12-18T16:07:53;4.90;99.90
2477;DHT22;1249;51.270;6.756;2022-12-18T16:10:20;4.80;99.90
2477;DHT22;1249;51.270;6.756;2022-12-18T16:12:47;4.80;99.90
2477;DHT22;1249;51.270;6.756;2022-12-18T16:15:14;4.80;99.90
2477;DHT22;1249;51.270;6.756;2022-12-18T16:17:42;4.80;99.90
2477;DHT22;1249;51.270;6.756;2022-12-18T16:20:12;4.70;99.90
2477;DHT22;1249;51.270;6.756;2022-12-18T16:22:40;4.80;99.90
2477;DHT22;1249;51.270;6.756;2022-12-18T16:25:17;4.60;99.90
2477;DHT22;1249;51.270;6.756;2022-12-18T16:27:44;4.60;99.90
2477;DHT22;1249;51.270;6.756;2022-12-18T16:30:13;4.70;99.90
2477;DHT22;1249;51.270;6.756;2022-12-18T16:32:40;4.60;99.90
2477;DHT22;1249;51.270;6.756;2022-12-18T16:35:09;4.50;99.90
2477;DHT22;1249;51.270;6.756;2022-12-18T16:37:36;4.50;99.90